createdAt,value
2019-02-16T00:01:21.565Z,6.53
2019-02-16T00:04:10.731Z,2.90
2019-02-16T00:07:00.880Z,5.73
2019-02-16T00:09:50.399Z,2.97
2019-02-16T00:12:40.005Z,2.10
2019-02-16T00:15:29.216Z,2.53
2019-02-16T00:18:19.047Z,2.23
2019-02-16T00:21:08.533Z,2.40
2019-02-16T00:23:58.740Z,7.00
2019-02-16T00:26:49.345Z,1.70
2019-02-16T00:29:39.596Z,1.83
2019-02-16T00:32:28.811Z,3.83
2019-02-16T00:35:21.340Z,10.27
2019-02-16T00:38:10.881Z,4.57
2019-02-16T00:41:05.567Z,5.07
2019-02-16T00:43:57.606Z,8.23
2019-02-16T00:46:47.475Z,9.27
2019-02-16T00:49:36.841Z,10.70
2019-02-16T00:52:26.083Z,9.43
2019-02-16T00:55:15.620Z,6.40
2019-02-16T00:58:05.118Z,6.53
2019-02-16T01:00:54.821Z,5.27
2019-02-16T01:03:44.718Z,4.60
2019-02-16T01:06:34.000Z,3.13
2019-02-16T01:09:23.834Z,2.60
2019-02-16T01:12:13.372Z,4.40
2019-02-16T01:15:02.995Z,4.00
2019-02-16T01:17:52.223Z,2.60
2019-02-16T01:20:41.925Z,2.70
2019-02-16T01:23:31.426Z,6.87
2019-02-16T01:26:20.950Z,10.10
2019-02-16T01:29:11.010Z,5.37
2019-02-16T01:35:36.719Z,3.20
2019-02-16T01:38:26.057Z,0.93
2019-02-16T01:41:18.165Z,1.77
2019-02-16T01:44:07.977Z,2.63
2019-02-16T01:46:57.361Z,1.30
2019-02-16T01:49:47.041Z,1.13
2019-02-16T01:52:36.591Z,2.80
2019-02-16T01:55:26.602Z,1.57
2019-02-16T01:58:16.977Z,2.33
2019-02-16T02:01:06.283Z,2.23
2019-02-16T02:03:55.818Z,3.00
2019-02-16T02:06:44.949Z,1.70
2019-02-16T02:09:34.776Z,11.90
2019-02-16T02:12:24.539Z,2.03
2019-02-16T02:15:14.042Z,3.90
2019-02-16T02:18:03.205Z,2.30
2019-02-16T02:20:53.227Z,3.13
2019-02-16T02:23:42.808Z,1.50
2019-02-16T02:26:31.965Z,2.50
2019-02-16T02:29:28.775Z,2.20
2019-02-16T02:32:18.946Z,3.10
2019-02-16T02:35:08.692Z,1.00
2019-02-16T02:37:57.974Z,2.00
2019-02-16T02:40:47.434Z,3.93
2019-02-16T02:43:36.689Z,2.07
2019-02-16T02:46:26.605Z,2.33
2019-02-16T02:49:15.823Z,1.97
2019-02-16T02:52:05.524Z,2.00
2019-02-16T02:54:54.976Z,1.70
2019-02-16T02:57:44.554Z,2.97
2019-02-16T03:00:33.738Z,3.60
2019-02-16T03:03:23.343Z,3.17
2019-02-16T03:06:12.885Z,2.80
2019-02-16T03:09:04.318Z,1.90
2019-02-16T03:11:53.994Z,2.40
2019-02-16T03:14:44.182Z,1.13
2019-02-16T03:17:33.362Z,1.10
2019-02-16T03:20:22.590Z,0.80
2019-02-16T03:23:14.340Z,1.03
2019-02-16T03:26:45.207Z,1.27
2019-02-16T03:29:57.620Z,1.57
2019-02-16T03:33:31.444Z,1.40
2019-02-16T03:36:56.851Z,1.57
2019-02-16T03:39:47.446Z,9.43
2019-02-16T03:42:37.661Z,7.70
2019-02-16T03:45:27.228Z,2.73
2019-02-16T03:48:17.199Z,2.80
2019-02-16T03:51:06.391Z,3.20
2019-02-16T03:53:55.791Z,2.37
2019-02-16T03:57:18.628Z,1.97
2019-02-16T04:00:08.966Z,1.90
2019-02-16T04:02:58.276Z,2.27
2019-02-16T04:05:48.144Z,3.10
2019-02-16T04:08:37.435Z,4.67
2019-02-16T04:11:26.603Z,4.53
2019-02-16T04:14:16.057Z,2.27
2019-02-16T04:17:05.332Z,6.10
2019-02-16T04:19:54.577Z,3.07
2019-02-16T04:22:44.699Z,0.97
2019-02-16T04:25:34.039Z,1.20
2019-02-16T04:28:23.568Z,1.57
2019-02-16T04:31:17.156Z,2.13
2019-02-16T04:34:06.569Z,1.60
2019-02-16T04:36:56.382Z,2.00
2019-02-16T04:39:45.585Z,1.30
2019-02-16T04:42:35.204Z,1.60
2019-02-16T04:45:24.450Z,0.83
2019-02-16T04:48:14.266Z,1.10
2019-02-16T04:51:03.459Z,0.80
2019-02-16T04:53:52.937Z,1.53
2019-02-16T04:56:42.230Z,1.80
2019-02-16T04:59:32.021Z,1.07
2019-02-16T05:02:22.331Z,2.63
2019-02-16T05:05:17.143Z,1.00
2019-02-16T05:08:06.266Z,4.97
2019-02-16T05:10:56.311Z,7.13
2019-02-16T05:13:45.698Z,1.10
2019-02-16T05:16:35.590Z,4.63
2019-02-16T05:19:24.834Z,4.33
2019-02-16T05:22:14.482Z,3.80
2019-02-16T05:25:04.025Z,2.00
2019-02-16T05:27:53.702Z,2.57
2019-02-16T05:30:42.982Z,1.63
2019-02-16T05:33:32.594Z,2.30
2019-02-16T05:36:22.080Z,2.07
2019-02-16T05:39:12.049Z,3.33
2019-02-16T05:42:01.522Z,1.50
2019-02-16T05:44:51.155Z,4.70
2019-02-16T05:47:42.257Z,1.60
2019-02-16T05:50:31.458Z,2.93
2019-02-16T05:53:20.755Z,1.30
2019-02-16T05:56:10.419Z,4.00
2019-02-16T05:59:00.013Z,1.77
2019-02-16T06:01:54.015Z,4.83
2019-02-16T06:04:40.581Z,2.03
2019-02-16T06:07:30.305Z,4.50
2019-02-16T06:10:19.758Z,2.50
2019-02-16T06:13:09.577Z,1.60
2019-02-16T06:15:59.098Z,3.80
2019-02-16T06:18:49.045Z,1.67
2019-02-16T06:21:39.787Z,1.80
2019-02-16T06:24:29.697Z,1.23
2019-02-16T06:27:19.306Z,4.00
2019-02-16T06:30:09.073Z,7.17
2019-02-16T06:32:59.110Z,2.80
2019-02-16T06:35:55.455Z,1.60
2019-02-16T06:38:45.383Z,5.47
2019-02-16T06:41:35.072Z,7.43
2019-02-16T06:44:25.047Z,16.87
2019-02-16T06:47:18.602Z,15.53
2019-02-16T06:50:08.655Z,7.00
2019-02-16T06:52:58.336Z,8.53
2019-02-16T06:55:57.494Z,8.13
2019-02-16T06:58:46.763Z,6.63
2019-02-16T07:01:37.102Z,12.70
2019-02-16T07:04:27.036Z,20.13
2019-02-16T07:07:16.610Z,16.40
2019-02-16T07:10:07.504Z,8.13
2019-02-16T07:12:56.874Z,6.30
2019-02-16T07:15:51.477Z,6.67
2019-02-16T07:18:48.523Z,5.80
2019-02-16T07:21:37.822Z,8.47
2019-02-16T07:24:27.275Z,14.83
2019-02-16T07:27:16.913Z,11.03
2019-02-16T07:30:07.060Z,6.73
2019-02-16T07:32:56.193Z,12.83
2019-02-16T07:35:45.731Z,12.20
2019-02-16T07:38:34.972Z,23.60
2019-02-16T07:41:24.329Z,49.00
2019-02-16T07:44:21.792Z,14.23
2019-02-16T07:47:33.132Z,18.57
2019-02-16T07:50:36.742Z,17.13
2019-02-16T07:53:44.058Z,10.40
2019-02-16T07:56:52.758Z,6.17
2019-02-16T07:59:57.471Z,12.63
2019-02-16T08:02:56.156Z,15.60
2019-02-16T08:06:02.951Z,12.60
2019-02-16T08:09:06.150Z,15.80
2019-02-16T08:12:23.627Z,15.43
2019-02-16T08:15:31.481Z,9.93
2019-02-16T08:18:39.391Z,9.53
2019-02-16T08:21:48.038Z,11.07
2019-02-16T08:24:56.545Z,11.20
2019-02-16T08:28:04.112Z,10.23
2019-02-16T08:31:18.808Z,9.90
2019-02-16T08:34:26.926Z,10.73
2019-02-16T08:37:50.677Z,8.43
2019-02-16T08:40:45.826Z,13.93
2019-02-16T08:43:49.061Z,9.97
2019-02-16T08:46:56.176Z,9.40
2019-02-16T08:49:57.538Z,12.73
2019-02-16T08:52:55.318Z,11.67
2019-02-16T08:56:04.138Z,12.30
2019-02-16T08:59:04.818Z,13.83
2019-02-16T09:02:03.341Z,18.10
2019-02-16T09:05:23.702Z,16.00
2019-02-16T09:08:24.346Z,29.80
2019-02-16T09:11:34.255Z,13.90
2019-02-16T09:14:45.533Z,13.97
2019-02-16T09:17:52.522Z,21.70
2019-02-16T09:20:58.420Z,26.43
2019-02-16T09:24:13.271Z,25.97
2019-02-16T09:27:21.648Z,22.00
2019-02-16T09:30:28.969Z,23.50
2019-02-16T09:33:40.158Z,23.23
2019-02-16T09:36:38.523Z,21.97
2019-02-16T09:39:46.590Z,19.53
2019-02-16T09:42:55.202Z,16.60
2019-02-16T09:46:12.701Z,25.60
2019-02-16T09:49:13.791Z,28.97
2019-02-16T09:52:21.489Z,23.80
2019-02-16T09:55:38.567Z,14.10
2019-02-16T09:58:59.326Z,19.67
2019-02-16T10:02:10.725Z,12.23
2019-02-16T10:05:19.160Z,9.13
2019-02-16T10:08:27.740Z,9.63
2019-02-16T10:11:34.742Z,8.13
2019-02-16T10:14:43.635Z,8.53
2019-02-16T10:17:41.164Z,12.80
2019-02-16T10:20:48.506Z,16.67
2019-02-16T10:24:06.061Z,11.10
2019-02-16T10:27:32.328Z,17.90
2019-02-16T10:30:30.919Z,27.73
2019-02-16T10:33:39.335Z,18.73
2019-02-16T10:36:47.054Z,28.23
2019-02-16T10:39:41.683Z,26.73
2019-02-16T10:42:48.566Z,14.90
2019-02-16T10:45:57.575Z,15.33
2019-02-16T10:49:04.626Z,12.00
2019-02-16T10:52:11.512Z,14.50
2019-02-16T10:55:27.427Z,13.97
2019-02-16T10:58:35.818Z,20.90
2019-02-16T11:01:50.834Z,17.73
2019-02-16T11:04:47.906Z,16.17
2019-02-16T11:07:47.818Z,20.57
2019-02-16T11:10:59.026Z,8.87
2019-02-16T11:14:05.317Z,12.13
2019-02-16T11:17:19.320Z,10.73
2019-02-16T11:20:32.253Z,4.43
2019-02-16T11:23:41.089Z,6.40
2019-02-16T11:26:54.408Z,5.87
2019-02-16T11:30:02.262Z,4.83
2019-02-16T11:33:20.385Z,2.90
2019-02-16T11:36:34.568Z,7.77
2019-02-16T11:39:32.120Z,6.93
2019-02-16T11:42:32.529Z,5.43
2019-02-16T11:45:46.731Z,6.50
2019-02-16T11:52:23.706Z,6.90
2019-02-16T11:55:47.387Z,10.03
2019-02-16T11:59:02.861Z,12.53
2019-02-16T12:02:17.713Z,10.00
2019-02-16T12:05:17.595Z,8.80
2019-02-16T12:08:19.251Z,8.20
2019-02-16T12:11:26.451Z,7.10
2019-02-16T12:14:44.669Z,8.03
2019-02-16T12:17:59.072Z,8.67
2019-02-16T12:21:06.353Z,11.57
2019-02-16T12:24:07.470Z,6.70
2019-02-16T12:27:10.448Z,6.37
2019-02-16T12:30:31.160Z,3.83
2019-02-16T12:33:39.622Z,6.63
2019-02-16T12:36:38.193Z,5.90
2019-02-16T12:39:52.490Z,3.50
2019-02-16T12:43:04.167Z,7.30
2019-02-16T12:46:05.816Z,8.67
2019-02-16T12:49:05.455Z,5.40
2019-02-16T12:52:12.674Z,4.07
2019-02-16T12:55:39.347Z,5.40
2019-02-16T12:58:36.435Z,9.90
2019-02-16T13:01:57.566Z,7.43
2019-02-16T13:05:09.444Z,5.23
2019-02-16T13:08:20.636Z,4.63
2019-02-16T13:11:29.070Z,5.53
2019-02-16T13:14:31.935Z,8.30
2019-02-16T13:17:43.142Z,4.80
2019-02-16T13:20:40.491Z,7.63
2019-02-16T13:23:57.646Z,8.13
2019-02-16T13:27:00.694Z,4.97
2019-02-16T13:30:00.956Z,5.57
2019-02-16T13:33:08.893Z,7.00
2019-02-16T13:36:35.579Z,10.20
2019-02-16T13:39:35.762Z,5.43
2019-02-16T13:42:36.974Z,6.73
2019-02-16T13:45:44.155Z,4.63
2019-02-16T13:48:59.247Z,8.03
2019-02-16T13:52:11.183Z,7.47
2019-02-16T13:55:22.779Z,6.13
2019-02-16T13:58:17.776Z,10.17
2019-02-16T14:04:40.681Z,5.70
2019-02-16T14:07:55.093Z,4.60
2019-02-16T14:10:59.054Z,7.53
2019-02-16T14:14:06.294Z,10.50
2019-02-16T14:17:17.807Z,13.60
2019-02-16T14:20:08.319Z,7.30
2019-02-16T14:22:57.766Z,5.83
2019-02-16T14:25:48.791Z,7.90
2019-02-16T14:28:37.947Z,10.53
2019-02-16T14:31:28.720Z,15.90
2019-02-16T14:34:18.198Z,9.60
2019-02-16T14:37:13.031Z,9.77
2019-02-16T14:40:02.686Z,6.60
2019-02-16T14:42:51.938Z,7.33
2019-02-16T14:45:41.963Z,12.67
2019-02-16T14:48:31.388Z,17.67
2019-02-16T14:51:21.496Z,11.33
2019-02-16T14:54:10.864Z,16.70
2019-02-16T14:57:00.424Z,31.90
2019-02-16T14:59:50.014Z,21.27
2019-02-16T15:02:40.103Z,34.97
2019-02-16T15:05:29.668Z,23.30
2019-02-16T15:08:20.265Z,18.33
2019-02-16T15:11:14.671Z,10.60
2019-02-16T15:14:03.768Z,17.57
2019-02-16T15:16:53.440Z,11.17
2019-02-16T15:19:43.217Z,7.20
2019-02-16T15:22:32.300Z,7.00
2019-02-16T15:25:21.755Z,7.20
2019-02-16T15:28:10.914Z,5.70
2019-02-16T15:31:00.646Z,5.63
2019-02-16T15:33:55.724Z,8.03
2019-02-16T15:36:45.771Z,12.33
2019-02-16T15:39:35.037Z,5.60
2019-02-16T15:42:24.964Z,12.63
2019-02-16T15:45:20.335Z,13.40
2019-02-16T15:48:09.798Z,17.53
2019-02-16T15:50:59.128Z,8.60
2019-02-16T15:53:49.030Z,7.23
2019-02-16T15:56:38.160Z,5.43
2019-02-16T15:59:35.042Z,6.10
2019-02-16T16:02:18.711Z,7.77
2019-02-16T16:05:08.811Z,3.90
2019-02-16T16:08:11.573Z,4.43
2019-02-16T16:11:19.633Z,6.70
2019-02-16T16:14:25.466Z,3.53
2019-02-16T16:17:33.082Z,6.83
2019-02-16T16:20:41.608Z,2.87
2019-02-16T16:23:49.862Z,8.10
2019-02-16T16:26:58.695Z,8.40
2019-02-16T16:29:59.777Z,5.80
2019-02-16T16:33:23.472Z,9.30
2019-02-16T16:36:31.571Z,7.90
2019-02-16T16:39:51.961Z,12.33
2019-02-16T16:42:56.938Z,6.27
2019-02-16T16:45:56.393Z,5.30
2019-02-16T16:48:59.341Z,5.13
2019-02-16T16:52:10.909Z,4.63
2019-02-16T16:55:34.927Z,8.60
2019-02-16T16:58:48.844Z,12.83
2019-02-16T17:01:52.050Z,13.57
2019-02-16T17:04:55.178Z,14.50
2019-02-16T17:07:59.159Z,14.93
2019-02-16T17:11:14.775Z,20.07
2019-02-16T17:14:23.820Z,51.73
2019-02-16T17:17:35.719Z,86.93
2019-02-16T17:20:44.125Z,120.10
2019-02-16T17:23:55.884Z,155.87
2019-02-16T17:26:51.146Z,147.00
2019-02-16T17:29:59.939Z,102.57
2019-02-16T17:33:17.239Z,34.63
2019-02-16T17:36:28.414Z,28.83
2019-02-16T17:39:40.133Z,32.97
2019-02-16T17:42:52.113Z,38.90
2019-02-16T17:45:54.571Z,16.20
2019-02-16T17:48:54.732Z,16.60
2019-02-16T17:52:11.987Z,17.90
2019-02-16T17:55:19.264Z,22.77
2019-02-16T17:58:15.029Z,27.30
2019-02-16T18:01:38.783Z,18.77
2019-02-16T18:04:40.570Z,17.30
2019-02-16T18:07:50.035Z,16.80
2019-02-16T18:11:03.109Z,22.93
2019-02-16T18:14:05.996Z,28.73
2019-02-16T18:17:11.200Z,18.60
2019-02-16T18:20:10.458Z,14.57
2019-02-16T18:23:05.711Z,27.03
2019-02-16T18:26:13.268Z,14.40
2019-02-16T18:29:29.049Z,15.13
2019-02-16T18:32:40.551Z,20.13
2019-02-16T18:35:40.457Z,44.73
2019-02-16T18:38:38.231Z,30.57
2019-02-16T18:41:43.682Z,17.33
2019-02-16T18:44:58.021Z,11.00
2019-02-16T18:51:16.713Z,13.67
2019-02-16T18:54:14.991Z,12.20
2019-02-16T18:57:27.038Z,10.97
2019-02-16T19:00:50.615Z,18.10
2019-02-16T19:03:59.282Z,23.87
2019-02-16T19:07:11.178Z,13.50
2019-02-16T19:10:18.208Z,11.73
2019-02-16T19:13:18.448Z,9.93
2019-02-16T19:16:39.030Z,19.43
2019-02-16T19:19:50.569Z,21.87
2019-02-16T19:23:10.968Z,12.63
2019-02-16T19:26:16.683Z,8.40
2019-02-16T19:29:39.103Z,14.57
2019-02-16T19:32:50.100Z,9.50
2019-02-16T19:35:48.097Z,14.90
2019-02-16T19:38:50.803Z,11.00
2019-02-16T19:41:59.987Z,10.90
2019-02-16T19:45:05.929Z,11.80
2019-02-16T19:48:06.749Z,9.40
2019-02-16T19:51:09.037Z,11.90
2019-02-16T19:54:19.965Z,16.60
2019-02-16T19:57:37.897Z,12.97
2019-02-16T20:00:56.125Z,25.10
2019-02-16T20:04:05.294Z,9.70
2019-02-16T20:07:12.597Z,11.27
2019-02-16T20:10:20.725Z,14.27
2019-02-16T20:13:27.518Z,14.47
2019-02-16T20:16:35.995Z,23.60
2019-02-16T20:19:56.742Z,16.73
2019-02-16T20:23:01.411Z,11.17
2019-02-16T20:26:08.367Z,10.67
2019-02-16T20:29:23.362Z,11.53
2019-02-16T20:32:37.619Z,20.10
2019-02-16T20:35:42.580Z,23.67
2019-02-16T20:38:57.078Z,15.63
2019-02-16T20:42:21.219Z,12.03
2019-02-16T20:45:42.127Z,13.97
2019-02-16T20:48:44.500Z,19.60
2019-02-16T20:51:52.521Z,18.40
2019-02-16T20:54:46.913Z,18.90
2019-02-16T20:58:07.133Z,12.73
2019-02-16T21:01:02.200Z,10.33
2019-02-16T21:04:20.569Z,10.30
2019-02-16T21:07:37.719Z,13.37
2019-02-16T21:10:45.925Z,9.40
2019-02-16T21:13:52.318Z,13.37
2019-02-16T21:16:59.158Z,10.37
2019-02-16T21:20:19.709Z,10.87
2019-02-16T21:23:27.497Z,11.27
2019-02-16T21:26:39.850Z,9.90
2019-02-16T21:30:03.724Z,11.47
2019-02-16T21:33:15.739Z,14.27
2019-02-16T21:36:15.195Z,14.30
2019-02-16T21:39:24.235Z,11.27
2019-02-16T21:42:46.300Z,14.00
2019-02-16T21:45:47.612Z,11.07
2019-02-16T21:48:56.219Z,8.90
2019-02-16T21:52:03.764Z,7.97
2019-02-16T21:55:24.101Z,7.40
2019-02-16T21:58:32.152Z,7.10
2019-02-16T22:01:46.557Z,6.37
2019-02-16T22:04:55.239Z,9.33
2019-02-16T22:08:02.880Z,10.80
2019-02-16T22:11:00.148Z,8.87
2019-02-16T22:13:49.987Z,3.83
2019-02-16T22:16:39.530Z,8.03
2019-02-16T22:19:29.326Z,6.63
2019-02-16T22:22:18.774Z,8.43
2019-02-16T22:25:07.918Z,7.90
2019-02-16T22:27:57.534Z,7.63
2019-02-16T22:30:46.741Z,6.70
2019-02-16T22:33:36.429Z,6.47
2019-02-16T22:39:51.178Z,3.13
2019-02-16T22:42:40.757Z,7.30
2019-02-16T22:45:30.139Z,4.97
2019-02-16T22:48:19.266Z,12.37
2019-02-16T22:51:08.819Z,7.17
2019-02-16T22:53:58.262Z,6.73
2019-02-16T22:56:48.174Z,3.90
2019-02-16T22:59:37.712Z,5.93
2019-02-16T23:02:28.222Z,7.87
2019-02-16T23:05:17.422Z,4.07
2019-02-16T23:08:07.066Z,5.73
2019-02-16T23:10:56.566Z,6.53
2019-02-16T23:13:46.202Z,3.97
2019-02-16T23:16:35.719Z,3.17
2019-02-16T23:19:25.412Z,7.53
2019-02-16T23:22:14.863Z,4.73
2019-02-16T23:25:04.128Z,2.07
2019-02-16T23:27:54.142Z,2.97
2019-02-16T23:30:43.452Z,5.97
2019-02-16T23:33:33.059Z,6.50
2019-02-16T23:36:22.307Z,4.17
2019-02-16T23:39:13.261Z,9.20
2019-02-16T23:42:02.954Z,5.50
2019-02-16T23:44:52.320Z,2.80
2019-02-16T23:47:41.481Z,4.60
2019-02-16T23:50:31.389Z,4.87
2019-02-16T23:53:20.987Z,8.80
2019-02-16T23:56:10.956Z,2.80
2019-02-16T23:59:00.160Z,2.27
